Time;durP1;ratioP1;P1;durP2;ratioP2;P2;SDS_P1;SDS_P2;PMS_P1;PMS_P2;Temp;Humidity;BMP_temperature;BMP_pressure;BME280_temperature;BME280_humidity;BME280_pressure;Samples;Min_cycle;Max_cycle;Signal;HPM_P1;HPM_P2
2020/12/13 00:01:34;;;;;;;0.97;0.93;;;;;;;4.16;96.36;100126.75;5073590;28;20438;-71
2020/12/13 00:04:00;;;;;;;1.57;1.53;;;;;;;4.17;95.97;100124.84;5073783;28;20441;-71
2020/12/13 00:06:30;;;;;;;30.30;3.27;;;;;;;4.18;95.13;100119.22;5073865;28;20445;-71
2020/12/13 00:08:57;;;;;;;2.50;2.17;;;;;;;4.14;94.82;100123.50;5073687;28;20557;-71
2020/12/13 00:11:23;;;;;;;8.37;2.60;;;;;;;4.14;94.56;100131.56;5073746;28;20471;-71
2020/12/13 00:13:49;;;;;;;7.87;3.03;;;;;;;4.16;94.23;100137.47;5073615;28;20507;-71
2020/12/13 00:16:16;;;;;;;2.30;2.10;;;;;;;4.14;94.32;100136.09;5073254;28;20878;-71
2020/12/13 00:18:42;;;;;;;3.97;1.87;;;;;;;4.11;94.35;100142.78;5073291;28;20463;-71
2020/12/13 00:21:10;;;;;;;3.77;3.37;;;;;;;4.15;94.37;100140.38;5073512;28;20511;-71
2020/12/13 00:23:37;;;;;;;1.30;1.20;;;;;;;4.16;94.84;100139.31;5073437;28;21007;-71
2020/12/13 00:26:07;;;;;;;3.03;1.80;;;;;;;4.21;95.49;100137.44;5073482;28;20513;-71
2020/12/13 00:28:34;;;;;;;2.97;2.77;;;;;;;4.23;96.34;100137.16;5073412;28;20573;-71
2020/12/13 00:31:00;;;;;;;1.37;1.10;;;;;;;4.25;97.00;100145.72;5073423;28;20440;-71
2020/12/13 00:33:27;;;;;;;27.37;1.60;;;;;;;4.21;97.51;100147.38;5073472;28;20434;-71
2020/12/13 00:35:53;;;;;;;1.00;0.83;;;;;;;4.28;97.38;100148.69;5073368;28;20438;-71
2020/12/13 00:38:20;;;;;;;6.50;2.43;;;;;;;4.30;97.30;100148.44;5072972;28;20464;-71
2020/12/13 00:40:48;;;;;;;7.83;2.23;;;;;;;4.29;97.62;100144.13;5073250;28;20539;-72
2020/12/13 00:43:15;;;;;;;1.27;1.17;;;;;;;4.36;97.51;100157.25;5072914;28;20441;-71
2020/12/13 00:45:42;;;;;;;6.27;2.70;;;;;;;4.37;97.53;100148.94;5072948;28;20938;-71
2020/12/13 00:48:09;;;;;;;10.67;2.47;;;;;;;4.37;97.50;100153.50;5072841;28;20497;-71
2020/12/13 00:50:37;;;;;;;2.40;1.70;;;;;;;4.34;97.94;100148.69;5073155;28;20516;-71
2020/12/13 00:53:04;;;;;;;4.33;2.73;;;;;;;4.36;97.79;100157.25;5073139;28;20475;-71
2020/12/13 00:55:30;;;;;;;1.70;0.70;;;;;;;4.40;97.16;100166.38;5073109;28;20483;-71
2020/12/13 00:57:56;;;;;;;5.83;1.60;;;;;;;4.37;96.43;100165.03;5073089;28;20515;-71
2020/12/13 01:00:24;;;;;;;8.20;2.83;;;;;;;4.33;96.01;100158.59;5073050;28;20441;-71
2020/12/13 01:02:51;;;;;;;2.40;0.90;;;;;;;4.29;95.52;100171.75;5072764;28;20472;-71
2020/12/13 01:05:18;;;;;;;4.63;3.20;;;;;;;4.29;95.24;100169.09;5073086;28;20520;-71
2020/12/13 01:07:44;;;;;;;10.60;1.67;;;;;;;4.28;94.74;100174.69;5072657;28;20896;-71
2020/12/13 01:10:10;;;;;;;4.33;1.77;;;;;;;4.20;95.71;100176.03;5072982;28;20520;-71
2020/12/13 01:12:36;;;;;;;8.30;4.90;;;;;;;4.20;95.78;100173.34;5073026;28;20484;-71
2020/12/13 01:15:06;;;;;;;3.33;3.03;;;;;;;4.23;96.10;100174.69;5074258;28;20441;-71
2020/12/13 01:17:33;;;;;;;1.60;1.50;;;;;;;4.20;96.32;100173.34;5076529;28;21050;-71
2020/12/13 01:19:59;;;;;;;1.27;1.03;;;;;;;4.19;96.50;100176.31;5076997;28;20498;-71
2020/12/13 01:22:26;;;;;;;0.40;0.40;;;;;;;4.15;96.34;100173.34;5076663;28;20437;-70
2020/12/13 01:24:52;;;;;;;8.80;1.57;;;;;;;4.16;97.01;100183.03;5076888;28;20518;-70
2020/12/13 01:27:18;;;;;;;2.70;1.77;;;;;;;4.20;97.43;100188.63;5076543;28;20515;-70
2020/12/13 01:29:44;;;;;;;22.27;2.10;;;;;;;4.20;98.08;100186.75;5076434;28;20523;-70
2020/12/13 01:32:11;;;;;;;0.50;0.50;;;;;;;4.23;98.75;100186.22;5076665;28;20438;-71
2020/12/13 01:34:38;;;;;;;1.60;1.47;;;;;;;4.25;99.11;100189.44;5065916;28;20522;-70
2020/12/13 01:37:04;;;;;;;1.30;1.20;;;;;;;4.26;99.59;100193.72;5056615;28;20530;-71
2020/12/13 01:39:30;;;;;;;2.03;1.90;;;;;;;4.22;99.97;100192.66;5056678;28;20484;-71
2020/12/13 01:41:58;;;;;;;3.07;2.03;;;;;;;4.20;100.00;100202.84;5056671;28;20442;-70
2020/12/13 01:44:30;;;;;;;12.23;2.43;;;;;;;4.25;100.00;100197.50;5056220;28;20989;-70
2020/12/13 01:46:57;;;;;;;8.73;2.03;;;;;;;4.25;100.00;100194.81;5056101;28;21177;-70
2020/12/13 01:49:27;;;;;;;3.47;2.73;;;;;;;4.21;100.00;100203.66;5056313;28;20542;-70
2020/12/13 01:52:07;;;;;;;2.97;2.77;;;;;;;4.23;100.00;100202.31;5056152;28;20476;-70
2020/12/13 01:54:36;;;;;;;2.20;2.10;;;;;;;4.21;100.00;100209.03;5056416;28;20438;-71
2020/12/13 01:57:04;;;;;;;6.53;1.13;;;;;;;4.20;100.00;100218.91;5056246;28;20458;-70
2020/12/13 01:59:36;;;;;;;0.73;0.73;;;;;;;4.23;100.00;100213.03;5056493;28;20434;-69
2020/12/13 02:02:04;;;;;;;0.83;0.83;;;;;;;4.20;100.00;100213.56;5056482;28;20426;-70
2020/12/13 02:04:34;;;;;;;4.50;2.67;;;;;;;4.22;100.00;100208.75;5056197;28;20488;-70
2020/12/13 02:07:03;;;;;;;4.33;2.47;;;;;;;4.24;100.00;100209.28;5055739;28;20478;-70
2020/12/13 02:09:29;;;;;;;4.87;1.83;;;;;;;4.23;100.00;100213.03;5055701;28;20477;-70
2020/12/13 02:11:55;;;;;;;3.03;1.93;;;;;;;4.23;100.00;100213.03;5055760;28;20487;-70
2020/12/13 02:14:21;;;;;;;3.23;2.00;;;;;;;4.19;99.61;100222.69;5055638;28;20939;-70
2020/12/13 02:16:49;;;;;;;1.13;0.97;;;;;;;4.15;99.32;100224.28;5055515;28;20504;-70
2020/12/13 02:19:16;;;;;;;18.47;3.27;;;;;;;4.15;98.59;100220.78;5055535;28;20823;-70
2020/12/13 02:21:43;;;;;;;0.80;0.63;;;;;;;3.95;98.80;100222.41;5055547;28;20446;-70
2020/12/13 02:24:11;;;;;;;5.40;3.27;;;;;;;3.97;99.07;100225.59;5055704;28;20446;-70
2020/12/13 02:26:39;;;;;;;1.20;1.03;;;;;;;4.00;99.00;100218.91;5055590;28;20512;-70
2020/12/13 02:29:06;;;;;;;4.03;2.57;;;;;;;4.07;98.28;100219.44;5055554;28;20489;-70
2020/12/13 02:31:32;;;;;;;3.67;1.80;;;;;;;4.07;97.93;100211.41;5055568;28;20484;-71
2020/12/13 02:33:58;;;;;;;0.70;0.70;;;;;;;4.12;98.05;100216.78;5055284;28;20492;-71
2020/12/13 02:36:25;;;;;;;0.93;0.67;;;;;;;4.14;97.44;100220.00;5055541;28;20492;-71
2020/12/13 02:38:51;;;;;;;4.70;4.30;;;;;;;4.12;97.82;100215.97;5055534;28;20850;-72
2020/12/13 02:41:18;;;;;;;2.00;1.07;;;;;;;4.08;97.90;100217.59;5055439;28;20496;-72
2020/12/13 02:43:44;;;;;;;0.40;0.40;;;;;;;4.09;97.75;100222.69;5055603;28;20454;-73
2020/12/13 02:46:10;;;;;;;1.20;1.13;;;;;;;4.15;97.77;100226.97;5055900;28;20441;-72
2020/12/13 02:48:36;;;;;;;12.73;3.80;;;;;;;4.17;98.55;100224.84;5055585;28;20504;-73
2020/12/13 02:51:03;;;;;;;3.83;3.27;;;;;;;4.20;98.75;100229.63;5055380;28;20996;-72
2020/12/13 02:53:29;;;;;;;1.67;1.33;;;;;;;4.21;99.15;100227.78;5055711;28;20511;-73
2020/12/13 02:55:55;;;;;;;6.27;2.10;;;;;;;4.15;99.98;100231.50;5055263;28;20464;-73
2020/12/13 02:58:22;;;;;;;1.63;0.73;;;;;;;4.22;99.85;100226.72;5055444;28;20465;-73
2020/12/13 03:00:48;;;;;;;2.53;1.70;;;;;;;4.26;100.00;100228.59;5055009;28;20993;-72
2020/12/13 03:03:15;;;;;;;4.93;0.83;;;;;;;4.35;99.86;100241.47;5055338;28;20453;-73
2020/12/13 03:05:41;;;;;;;0.40;0.37;;;;;;;4.36;99.56;100237.69;5055383;28;20438;-72
2020/12/13 03:08:08;;;;;;;2.03;0.67;;;;;;;4.37;99.80;100250.03;5054733;28;20517;-73
2020/12/13 03:10:34;;;;;;;9.00;2.90;;;;;;;4.40;99.70;100242.25;5054611;28;20995;-73
2020/12/13 03:13:00;;;;;;;4.47;3.20;;;;;;;4.46;99.34;100248.41;5054957;28;20853;-72
2020/12/13 03:15:27;;;;;;;2.03;1.93;;;;;;;4.47;99.36;100250.00;5054574;28;20997;-73
2020/12/13 03:17:53;;;;;;;0.50;0.47;;;;;;;4.46;99.10;100259.13;5054691;28;20527;-73
2020/12/13 03:20:20;;;;;;;1.63;1.53;;;;;;;4.42;98.08;100250.03;5055971;28;20430;-72
2020/12/13 03:22:46;;;;;;;8.50;3.63;;;;;;;4.39;97.57;100254.06;5074755;28;20444;-73
2020/12/13 03:25:12;;;;;;;5.77;4.23;;;;;;;4.37;96.92;100255.38;5074852;28;20437;-72
2020/12/13 03:27:38;;;;;;;1.23;1.23;;;;;;;4.29;96.27;100254.88;5074763;28;20497;-73
2020/12/13 03:30:04;;;;;;;1.73;1.47;;;;;;;4.24;96.09;100257.53;5074308;28;20530;-73
2020/12/13 03:32:35;;;;;;;1.93;1.03;;;;;;;4.22;96.52;100254.31;5074340;28;20996;-73
2020/12/13 03:35:02;;;;;;;2.00;1.13;;;;;;;4.24;96.22;100262.88;5074416;28;20425;-73
2020/12/13 03:37:28;;;;;;;11.30;3.87;;;;;;;4.22;96.34;100266.91;5066250;28;20486;-73
2020/12/13 03:39:54;;;;;;;0.40;0.30;;;;;;;4.20;96.56;100269.03;5054097;28;20932;-72
2020/12/13 03:42:20;;;;;;;1.83;1.43;;;;;;;4.20;96.74;100264.47;5054214;28;20439;-73
2020/12/13 03:44:47;;;;;;;0.80;0.63;;;;;;;4.23;96.62;100269.31;5054530;28;20457;-73
2020/12/13 03:47:13;;;;;;;4.07;3.30;;;;;;;4.25;97.16;100266.34;5053945;28;20893;-72
2020/12/13 03:49:40;;;;;;;1.50;1.40;;;;;;;4.26;97.52;100268.78;5053899;28;21018;-72
2020/12/13 03:52:06;;;;;;;1.57;1.30;;;;;;;4.25;98.32;100275.22;5053873;28;20442;-71
2020/12/13 03:54:32;;;;;;;7.70;3.77;;;;;;;4.30;98.65;100269.88;5053791;28;20440;-71
2020/12/13 03:56:58;;;;;;;2.83;1.43;;;;;;;4.26;99.08;100274.16;5053659;28;20967;-71
2020/12/13 03:59:25;;;;;;;0.40;0.33;;;;;;;4.35;99.03;100281.69;5053944;28;20490;-72
2020/12/13 04:01:51;;;;;;;6.67;3.10;;;;;;;4.37;98.90;100277.63;5053947;28;20496;-72
2020/12/13 04:04:17;;;;;;;2.20;2.00;;;;;;;4.44;98.95;100282.75;5053721;28;20464;-72
2020/12/13 04:06:44;;;;;;;2.53;1.37;;;;;;;4.42;98.82;100288.38;5053764;28;20528;-71
2020/12/13 04:09:10;;;;;;;14.73;3.23;;;;;;;4.44;98.97;100286.22;5053627;28;20886;-72
2020/12/13 04:11:36;;;;;;;2.07;1.97;;;;;;;4.46;98.81;100283.28;5053723;28;20502;-71
2020/12/13 04:14:02;;;;;;;1.97;1.40;;;;;;;4.47;98.63;100284.88;5053744;28;20446;-71
2020/12/13 04:16:31;;;;;;;2.17;1.40;;;;;;;4.48;98.33;100283.81;5053476;28;20447;-71
2020/12/13 04:18:57;;;;;;;1.73;1.63;;;;;;;4.42;97.81;100282.19;5053361;28;21073;-71
2020/12/13 04:21:25;;;;;;;8.67;2.07;;;;;;;4.40;97.40;100290.53;5053525;28;20446;-71
2020/12/13 04:23:52;;;;;;;3.93;1.77;;;;;;;4.36;96.60;100285.97;5053572;28;20442;-71
2020/12/13 04:26:18;;;;;;;5.10;2.30;;;;;;;4.27;95.56;100289.16;5053402;28;20466;-71
2020/12/13 04:28:44;;;;;;;12.10;2.60;;;;;;;4.20;95.50;100298.53;5053338;28;20503;-71
2020/12/13 04:31:10;;;;;;;4.43;1.80;;;;;;;4.24;95.69;100305.78;5053106;28;20519;-71
2020/12/13 04:33:37;;;;;;;13.00;4.90;;;;;;;4.20;96.42;100304.69;5053383;28;20860;-71
2020/12/13 04:36:05;;;;;;;2.07;1.97;;;;;;;4.21;96.13;100306.31;5053397;28;20435;-71
2020/12/13 04:38:31;;;;;;;5.87;4.03;;;;;;;4.19;95.86;100316.50;5052983;28;20967;-71
2020/12/13 04:41:00;;;;;;;6.80;2.77;;;;;;;4.21;96.33;100314.38;5071219;28;20511;-71
2020/12/13 04:43:27;;;;;;;8.20;1.80;;;;;;;4.26;97.09;100310.88;5071859;28;20429;-71
2020/12/13 04:45:53;;;;;;;7.50;5.53;;;;;;;4.30;97.32;100312.78;5072717;28;20534;-70
2020/12/13 04:48:21;;;;;;;2.00;0.97;;;;;;;4.24;97.91;100315.69;5073063;28;20497;-71
2020/12/13 04:50:50;;;;;;;2.17;1.70;;;;;;;4.32;98.03;100317.06;5072569;28;20481;-71
2020/12/13 04:53:17;;;;;;;1.40;1.30;;;;;;;4.32;98.41;100317.84;5072861;28;20467;-70
2020/12/13 04:55:52;;;;;;;1.40;1.13;;;;;;;4.40;98.41;100322.69;5072940;28;20874;-71
2020/12/13 04:58:21;;;;;;;1.60;1.30;;;;;;;4.43;98.20;100322.16;5073171;28;20461;-71
2020/12/13 05:00:53;;;;;;;12.40;2.83;;;;;;;4.45;98.13;100319.22;5072869;28;20438;-70
2020/12/13 05:03:20;;;;;;;1.83;1.00;;;;;;;4.40;98.24;100319.22;5073128;28;20428;-71
2020/12/13 05:05:47;;;;;;;11.47;2.63;;;;;;;4.45;98.33;100327.25;5073149;28;20822;-70
2020/12/13 05:08:13;;;;;;;7.93;3.57;;;;;;;4.49;98.32;100325.66;5072946;28;20460;-71
2020/12/13 05:10:39;;;;;;;22.77;1.93;;;;;;;4.40;98.27;100324.56;5072688;28;20480;-71
2020/12/13 05:13:06;;;;;;;4.10;2.10;;;;;;;4.43;97.87;100319.50;5073033;28;20441;-72
2020/12/13 05:15:35;;;;;;;13.20;1.63;;;;;;;4.39;96.91;100331.03;5072756;28;20527;-73
2020/12/13 05:18:01;;;;;;;1.03;0.90;;;;;;;4.33;96.76;100332.06;5090451;22;20525;-78
2020/12/13 05:20:27;;;;;;;1.43;1.33;;;;;;;4.33;96.29;100326.69;5056706;28;20982;-78
2020/12/13 05:22:55;;;;;;;2.80;2.60;;;;;;;4.30;95.78;100328.06;5055653;28;20496;-77
2020/12/13 05:25:28;;;;;;;12.80;2.20;;;;;;;4.26;96.32;100333.13;5052386;22;20593;-63
2020/12/13 05:27:56;;;;;;;1.80;0.87;;;;;;;4.29;96.44;100337.13;5033842;28;20497;-64
2020/12/13 05:30:27;;;;;;;1.53;1.43;;;;;;;4.22;96.88;100345.44;5034687;28;20550;-65
2020/12/13 05:33:02;;;;;;;5.03;2.53;;;;;;;4.17;96.81;100344.66;5035809;28;20451;-63
2020/12/13 05:35:29;;;;;;;2.73;1.50;;;;;;;4.17;96.67;100337.41;5034276;28;20477;-64
2020/12/13 05:37:55;;;;;;;4.33;2.67;;;;;;;4.17;97.09;100345.44;5034825;28;20879;-65
2020/12/13 05:40:22;;;;;;;6.00;5.33;;;;;;;4.21;97.44;100341.16;5035273;28;20439;-64
2020/12/13 05:42:57;;;;;;;1.67;1.57;;;;;;;4.24;97.92;100342.50;5035137;28;20439;-64
2020/12/13 05:45:44;;;;;;;10.33;2.70;;;;;;;4.27;97.95;100345.47;5036168;28;20519;-64
2020/12/13 05:53:42;;;;;;;4.57;2.37;;;;;;;4.33;98.45;100348.16;5038165;28;20454;-64
2020/12/13 05:56:09;;;;;;;11.57;4.80;;;;;;;4.34;98.49;100355.13;5038157;28;20443;-64
2020/12/13 05:58:36;;;;;;;8.90;2.30;;;;;;;4.35;98.84;100354.88;5037766;28;20525;-65
2020/12/13 06:01:05;;;;;;;2.90;2.23;;;;;;;4.40;98.69;100354.06;5040342;28;20948;-65
2020/12/13 06:03:33;;;;;;;1.60;1.50;;;;;;;4.38;98.52;100353.50;5043084;28;20469;-64
2020/12/13 06:06:04;;;;;;;10.50;2.13;;;;;;;4.40;98.66;100365.59;5042924;28;20435;-64
2020/12/13 06:08:55;;;;;;;2.20;1.50;;;;;;;4.40;98.45;100372.84;5041461;28;20505;-65
2020/12/13 06:11:22;;;;;;;1.27;1.17;;;;;;;4.27;97.90;100379.50;5038254;28;20822;-64
2020/12/13 06:13:53;;;;;;;2.50;2.10;;;;;;;4.26;98.10;100378.72;5038328;28;20439;-64
2020/12/13 06:16:20;;;;;;;1.17;1.10;;;;;;;4.24;97.36;100378.16;5039346;28;20458;-66
2020/12/13 06:18:47;;;;;;;17.50;1.57;;;;;;;4.21;97.23;100380.56;5036064;28;20536;-64
2020/12/13 06:21:15;;;;;;;6.33;2.57;;;;;;;4.22;96.29;100388.34;5035936;28;20439;-66
2020/12/13 06:23:46;;;;;;;2.20;1.17;;;;;;;4.19;95.97;100375.47;5036439;28;20443;-66
2020/12/13 06:26:13;;;;;;;0.50;0.50;;;;;;;4.20;95.47;100371.69;5037057;28;20447;-65
2020/12/13 06:28:39;;;;;;;4.23;2.13;;;;;;;4.20;94.96;100374.38;5036455;28;20829;-65
2020/12/13 06:31:05;;;;;;;1.00;0.90;;;;;;;4.15;94.94;100371.69;5036190;28;20619;-64
2020/12/13 06:33:40;;;;;;;13.70;3.77;;;;;;;4.15;95.18;100376.25;5036159;28;20490;-64
2020/12/13 06:36:09;;;;;;;3.43;2.30;;;;;;;4.18;95.33;100381.09;5035907;28;20421;-64
2020/12/13 06:38:38;;;;;;;3.10;2.90;;;;;;;4.18;95.03;100387.25;5036223;28;20459;-64
2020/12/13 06:41:07;;;;;;;1.40;1.30;;;;;;;4.15;96.30;100395.00;5035977;28;20497;-64
2020/12/13 06:43:55;;;;;;;7.53;4.00;;;;;;;4.15;97.12;100398.50;5035955;28;20442;-65
2020/12/13 06:46:23;;;;;;;2.00;0.60;;;;;;;4.19;97.53;100404.13;5035892;28;20482;-65
2020/12/13 06:48:49;;;;;;;1.23;1.23;;;;;;;4.20;98.04;100401.19;5035245;28;20462;-64
2020/12/13 06:51:18;;;;;;;7.67;1.97;;;;;;;4.30;97.99;100414.66;5035659;28;20482;-65
2020/12/13 06:53:49;;;;;;;0.80;0.80;;;;;;;4.34;98.02;100416.78;5035443;28;20497;-61
2020/12/13 06:56:17;;;;;;;2.40;1.57;;;;;;;4.35;98.15;100418.41;5036031;28;20424;-61
2020/12/13 06:58:45;;;;;;;3.23;2.00;;;;;;;4.35;97.90;100413.84;5036256;28;20463;-62
2020/12/13 07:01:16;;;;;;;2.33;1.80;;;;;;;4.39;98.26;100424.88;5036134;28;20487;-63
2020/12/13 07:03:43;;;;;;;3.03;1.50;;;;;;;4.42;98.30;100424.31;5035223;28;20431;-63
2020/12/13 07:06:15;;;;;;;4.90;4.30;;;;;;;4.41;98.33;100422.72;5035850;28;20439;-63
2020/12/13 07:08:47;;;;;;;2.33;1.70;;;;;;;4.43;98.09;100425.94;5034788;28;20471;-63
2020/12/13 07:11:13;;;;;;;3.10;1.20;;;;;;;4.40;97.65;100434.50;5035120;28;20498;-64
2020/12/13 07:13:43;;;;;;;6.30;1.30;;;;;;;4.35;96.80;100437.19;5034159;28;20444;-63
2020/12/13 07:16:12;;;;;;;0.93;0.80;;;;;;;4.30;96.78;100437.97;5035064;28;20463;-64
2020/12/13 07:18:45;;;;;;;2.33;2.23;;;;;;;4.23;96.58;100443.56;5034869;28;20459;-63
2020/12/13 07:21:14;;;;;;;4.47;4.10;;;;;;;4.23;96.50;100446.25;5034817;28;20448;-64
2020/12/13 07:23:40;;;;;;;2.97;1.83;;;;;;;4.21;96.70;100448.38;5034718;28;20992;-62
2020/12/13 07:26:07;;;;;;;8.43;2.23;;;;;;;4.11;96.58;100452.88;5034785;28;20428;-62
2020/12/13 07:28:34;;;;;;;2.60;2.40;;;;;;;4.10;96.66;100444.03;5034283;28;20513;-63
2020/12/13 07:31:03;;;;;;;0.87;0.87;;;;;;;4.15;96.62;100453.97;5034628;28;20519;-62
2020/12/13 07:33:29;;;;;;;0.70;0.70;;;;;;;4.11;96.19;100459.03;5034298;28;20466;-63
2020/12/13 07:35:57;;;;;;;1.80;1.70;;;;;;;4.13;96.07;100456.94;5034292;28;20501;-63
2020/12/13 07:38:23;;;;;;;14.43;2.13;;;;;;;4.13;96.36;100458.81;5034537;28;20525;-63
2020/12/13 07:40:49;;;;;;;5.70;1.43;;;;;;;4.19;96.43;100465.78;5034513;28;20855;-63
2020/12/13 07:43:16;;;;;;;6.77;2.50;;;;;;;4.18;96.81;100470.34;5034896;28;20497;-64
2020/12/13 07:45:46;;;;;;;2.73;1.07;;;;;;;4.25;96.95;100475.47;5035392;28;20484;-63
2020/12/13 07:48:12;;;;;;;0.70;0.57;;;;;;;4.29;97.50;100469.34;5035631;28;20538;-63
2020/12/13 07:50:44;;;;;;;8.50;1.90;;;;;;;4.33;97.54;100479.53;5035448;28;20483;-63
2020/12/13 07:53:10;;;;;;;2.73;1.53;;;;;;;4.38;97.79;100482.22;5035618;28;20484;-63
2020/12/13 07:55:42;;;;;;;1.00;0.93;;;;;;;4.38;97.91;100479.53;5035224;28;20493;-64
2020/12/13 07:58:08;;;;;;;2.90;2.70;;;;;;;4.43;97.81;100475.03;5034973;28;20491;-62
2020/12/13 08:00:35;;;;;;;2.53;2.43;;;;;;;4.41;97.84;100473.66;5034736;28;20439;-62
2020/12/13 08:03:01;;;;;;;2.00;1.73;;;;;;;4.42;98.04;100472.59;5034334;28;20879;-63
2020/12/13 08:05:28;;;;;;;1.30;1.20;;;;;;;4.49;97.99;100478.53;5034889;28;20443;-63
2020/12/13 08:07:58;;;;;;;9.73;2.47;;;;;;;4.56;97.57;100479.09;5034518;28;20897;-63
2020/12/13 08:10:28;;;;;;;1.90;1.43;;;;;;;4.54;97.43;100489.25;5042695;28;20565;-62
2020/12/13 08:12:54;;;;;;;1.80;1.70;;;;;;;4.56;97.46;100500.53;5054618;28;20442;-63
2020/12/13 08:15:20;;;;;;;0.70;0.67;;;;;;;4.56;97.03;100497.88;5054551;28;20865;-63
2020/12/13 08:17:59;;;;;;;17.67;1.70;;;;;;;4.48;96.49;100507.22;5054326;28;20457;-63
2020/12/13 08:20:29;;;;;;;3.90;1.13;;;;;;;4.46;95.46;100517.38;5053472;28;20918;-64
2020/12/13 08:22:58;;;;;;;2.43;1.50;;;;;;;4.40;94.75;100515.75;5053759;28;20442;-64
2020/12/13 08:25:25;;;;;;;0.50;0.50;;;;;;;4.30;94.76;100519.22;5052634;28;20469;-63
2020/12/13 08:27:51;;;;;;;3.90;2.00;;;;;;;4.36;94.70;100524.59;5053419;28;20466;-63
2020/12/13 08:30:18;;;;;;;1.87;1.77;;;;;;;4.34;94.96;100529.38;5053789;28;20478;-63
2020/12/13 08:32:45;;;;;;;0.57;0.57;;;;;;;4.37;95.09;100528.88;5053642;28;20449;-63
2020/12/13 08:35:13;;;;;;;10.43;2.00;;;;;;;4.41;94.62;100532.66;5053508;28;20512;-63
2020/12/13 08:37:40;;;;;;;3.30;2.50;;;;;;;4.37;94.23;100536.91;5053478;28;20832;-63
2020/12/13 08:40:08;;;;;;;3.03;1.67;;;;;;;4.42;94.36;100534.25;5052629;28;20989;-63
2020/12/13 08:42:35;;;;;;;11.53;1.40;;;;;;;4.49;95.13;100542.88;5053539;28;20489;-63
2020/12/13 08:45:01;;;;;;;2.40;0.77;;;;;;;4.55;95.62;100542.63;5053428;28;20488;-64
2020/12/13 08:47:31;;;;;;;1.40;1.30;;;;;;;4.62;95.60;100553.13;5053426;28;20458;-63
2020/12/13 08:49:58;;;;;;;2.20;1.73;;;;;;;4.58;96.11;100561.97;5053295;28;20478;-63
2020/12/13 08:52:27;;;;;;;1.80;0.93;;;;;;;4.61;96.18;100562.25;5053440;28;20439;-63
2020/12/13 08:54:55;;;;;;;3.47;2.17;;;;;;;4.66;96.41;100558.78;5053524;28;20441;-64
2020/12/13 08:57:28;;;;;;;0.73;0.60;;;;;;;4.72;96.20;100552.38;5053234;28;20466;-65
2020/12/13 09:00:06;;;;;;;7.40;1.97;;;;;;;4.76;96.20;100538.16;5054123;28;20495;-63
2020/12/13 09:02:32;;;;;;;0.80;0.80;;;;;;;4.86;96.27;100544.63;5053664;28;20426;-63
2020/12/13 09:05:00;;;;;;;0.73;0.70;;;;;;;4.88;96.21;100555.91;5053499;28;20511;-63
2020/12/13 09:07:32;;;;;;;8.80;2.97;;;;;;;4.96;95.75;100555.41;5053653;28;20461;-64
2020/12/13 09:10:10;;;;;;;4.00;3.70;;;;;;;4.94;95.92;100554.84;5053310;28;20466;-63
2020/12/13 09:12:38;;;;;;;1.03;0.83;;;;;;;4.96;95.96;100555.41;5052971;28;20445;-63
2020/12/13 09:15:09;;;;;;;5.97;3.93;;;;;;;5.05;95.59;100561.88;5053185;28;20492;-63
2020/12/13 09:17:35;;;;;;;10.90;1.67;;;;;;;5.04;95.60;100577.16;5052917;28;20458;-64
2020/12/13 09:20:02;;;;;;;2.33;1.70;;;;;;;5.12;95.36;100573.16;5052640;28;20438;-64
2020/12/13 09:22:29;;;;;;;8.23;3.20;;;;;;;5.03;95.14;100578.22;5052618;28;20997;-64
2020/12/13 09:24:57;;;;;;;3.80;1.57;;;;;;;5.03;95.04;100574.75;5052533;28;20492;-64
2020/12/13 09:27:23;;;;;;;5.33;4.00;;;;;;;5.10;94.81;100580.69;5052803;28;20519;-65
2020/12/13 09:29:51;;;;;;;4.33;2.70;;;;;;;5.14;94.60;100581.75;5052512;28;20521;-65
2020/12/13 09:32:19;;;;;;;1.90;1.00;;;;;;;5.23;94.45;100580.16;5052504;28;20446;-64
2020/12/13 09:34:46;;;;;;;2.53;1.30;;;;;;;5.27;94.27;100581.25;5052861;28;20492;-64
2020/12/13 09:37:16;;;;;;;5.70;0.90;;;;;;;5.31;94.14;100582.34;5056303;28;20924;-65
2020/12/13 09:39:44;;;;;;;8.03;2.10;;;;;;;5.38;93.74;100582.06;5056806;28;20472;-64
2020/12/13 09:42:11;;;;;;;2.43;2.00;;;;;;;5.38;93.46;100586.63;5056636;28;20816;-65
2020/12/13 09:44:38;;;;;;;2.33;1.60;;;;;;;5.43;92.71;100586.63;5056390;28;20473;-64
2020/12/13 09:47:04;;;;;;;1.80;1.70;;;;;;;5.43;92.14;100586.63;5056195;28;20966;-65
2020/12/13 09:49:31;;;;;;;1.80;1.70;;;;;;;5.39;91.37;100580.19;5056643;28;20843;-64
2020/12/13 09:51:58;;;;;;;8.13;2.57;;;;;;;5.39;91.15;100585.56;5056371;28;20473;-62
2020/12/13 09:54:25;;;;;;;5.97;1.53;;;;;;;5.36;90.30;100588.75;5056789;28;20446;-64
2020/12/13 09:56:53;;;;;;;2.73;1.03;;;;;;;5.35;89.95;100579.09;5056107;28;20438;-64
2020/12/13 09:59:20;;;;;;;3.83;2.80;;;;;;;5.37;90.56;100582.34;5056477;28;20458;-64
2020/12/13 10:01:46;;;;;;;2.73;1.90;;;;;;;5.43;90.91;100583.94;5043136;28;20448;-66
2020/12/13 10:04:13;;;;;;;2.57;2.40;;;;;;;5.48;91.08;100583.94;5016378;28;20529;-66
2020/12/13 10:06:52;;;;;;;4.27;1.90;;;;;;;5.51;91.48;100581.53;5028424;28;20446;-63
2020/12/13 10:09:19;;;;;;;6.53;2.93;;;;;;;5.57;91.63;100582.34;5016421;28;20510;-63
2020/12/13 10:11:46;;;;;;;7.40;2.77;;;;;;;5.61;91.86;100586.13;5016387;28;20495;-64
2020/12/13 10:14:14;;;;;;;3.37;3.10;;;;;;;5.65;91.57;100581.81;5016415;28;20863;-64
2020/12/13 10:16:42;;;;;;;1.67;1.50;;;;;;;5.64;91.27;100579.41;5015972;28;20865;-63
2020/12/13 10:19:09;;;;;;;0.70;0.60;;;;;;;5.66;90.37;100594.19;5016265;28;20495;-64
2020/12/13 10:21:36;;;;;;;4.77;3.20;;;;;;;5.72;89.60;100592.31;5015890;28;20467;-64
2020/12/13 10:24:03;;;;;;;0.97;0.97;;;;;;;5.76;88.24;100588.03;5015654;28;20444;-64
2020/12/13 10:26:31;;;;;;;4.63;2.60;;;;;;;5.79;87.96;100590.97;5014753;28;20483;-64
2020/12/13 10:28:58;;;;;;;2.53;2.43;;;;;;;5.78;87.63;100592.03;5014877;28;20463;-64
2020/12/13 10:31:30;;;;;;;4.00;2.10;;;;;;;5.72;87.94;100595.81;5014808;28;20523;-64
2020/12/13 10:33:56;;;;;;;2.63;1.80;;;;;;;5.71;88.11;100599.56;5014775;28;20550;-64
2020/12/13 10:36:23;;;;;;;2.13;1.60;;;;;;;5.72;88.73;100598.50;5014573;28;21003;-62
2020/12/13 10:38:51;;;;;;;14.80;3.33;;;;;;;5.78;88.45;100601.97;5014927;28;20460;-63
2020/12/13 10:41:18;;;;;;;1.73;1.63;;;;;;;5.79;87.33;100593.66;5014831;28;20876;-64
2020/12/13 10:43:44;;;;;;;5.83;2.03;;;;;;;5.77;86.85;100603.88;5014717;28;20506;-63
2020/12/13 10:46:10;;;;;;;2.20;1.03;;;;;;;5.73;86.54;100605.47;5014478;28;20934;-64
2020/12/13 10:48:37;;;;;;;1.20;1.20;;;;;;;5.75;86.25;100597.94;5013542;28;20488;-63
2020/12/13 10:51:04;;;;;;;5.50;2.77;;;;;;;5.79;86.08;100604.38;5014301;28;21009;-63
2020/12/13 10:53:30;;;;;;;9.43;3.37;;;;;;;5.84;86.64;100598.22;5014715;28;20448;-64
2020/12/13 10:55:56;;;;;;;3.90;1.53;;;;;;;5.91;87.96;100597.97;5014679;28;20436;-63
2020/12/13 10:58:22;;;;;;;6.10;3.50;;;;;;;5.92;89.08;100602.28;5014537;28;20871;-64
2020/12/13 11:00:49;;;;;;;1.83;1.67;;;;;;;6.02;89.11;100596.88;5014500;28;20436;-63
2020/12/13 11:03:16;;;;;;;6.40;2.97;;;;;;;6.10;89.34;100601.72;5014544;28;20522;-64
2020/12/13 11:05:44;;;;;;;16.43;2.10;;;;;;;6.19;89.31;100602.78;5014472;28;20436;-63
2020/12/13 11:08:11;;;;;;;2.70;1.83;;;;;;;6.31;89.34;100610.59;5014402;28;20468;-63
2020/12/13 11:10:37;;;;;;;3.30;2.73;;;;;;;6.20;88.73;100609.81;5013964;28;20484;-64
2020/12/13 11:13:04;;;;;;;4.57;1.90;;;;;;;6.24;88.98;100613.56;5014316;28;20824;-64
2020/12/13 11:15:30;;;;;;;5.50;2.40;;;;;;;6.34;88.47;100617.31;5014016;28;20448;-64
2020/12/13 11:17:56;;;;;;;3.70;3.27;;;;;;;6.41;88.27;100615.13;5014456;28;20460;-63
2020/12/13 11:20:23;;;;;;;1.97;1.87;;;;;;;6.43;88.27;100616.47;5014750;28;20443;-64
2020/12/13 11:22:50;;;;;;;5.00;2.33;;;;;;;6.51;88.53;100609.75;5014394;28;20440;-64
2020/12/13 11:25:17;;;;;;;12.20;4.10;;;;;;;6.56;87.99;100615.91;4991534;28;663846;-65
2020/12/13 11:27:43;;;;;;;2.03;1.40;;;;;;;6.56;86.78;100623.19;5014918;28;20275;-63
2020/12/13 11:30:10;;;;;;;8.77;4.77;;;;;;;6.45;86.17;100616.19;5014889;28;20571;-64
2020/12/13 11:32:37;;;;;;;3.37;2.90;;;;;;;6.44;86.55;100625.34;5015016;28;20475;-64
2020/12/13 11:35:04;;;;;;;9.20;1.33;;;;;;;6.48;87.04;100626.44;5014964;28;20440;-64
2020/12/13 11:37:30;;;;;;;7.13;2.57;;;;;;;6.47;87.60;100624.81;5015783;28;20456;-64
2020/12/13 11:39:57;;;;;;;5.03;4.00;;;;;;;6.48;88.09;100626.44;5016052;28;20444;-65